Friday, January 18, 2019, 3:34 AM EST
Back to Local

KPSM, Pease Air Force Base / Portsmouth

Location: Portsmouth, NH, United States Lat: 43.083
Local Time: 3:34 AM EST ( 8:34 GMT) Lon: -70.817
Time Zone: US/Eastern Elev: 101 ft

Show me the last for .
Show Decoded

2019-01-18 02:56 METAR KPSM 180756Z 30003KT 10SM FEW060 OVC085 M06/M15 A3024 RMK AO2A SLP244
                 T10631146 =
2019-01-18 01:56 METAR KPSM 180656Z 03003KT 10SM SCT060 BKN085 OVC110 M06/M17 A3025 RMK AO2A
                 SLP247 T10611172 =
2019-01-18 00:56 METAR KPSM 180556Z 32003KT 10SM FEW060 BKN070 OVC085 M06/M17 A3027 RMK AO2A
                 SLP254 T10631166 11059 21070 57019 =
2019-01-17 23:56 METAR KPSM 180456Z 00000KT 10SM FEW060 BKN085 OVC120 M06/M19 A3029 RMK AO2A
                 SLP261 T10601187 410361119 =
2019-01-17 22:56 METAR KPSM 180356Z 00000KT 10SM FEW060 BKN095 OVC120 M06/M19 A3032 RMK AO2A
                 SLP271 T10611195 =
2019-01-17 21:56 METAR KPSM 180256Z 00000KT 10SM FEW100 SCT130 OVC200 M06/M18 A3033 RMK AO2A
                 SLP275 T10611185 55003 =
2019-01-17 20:56 METAR KPSM 180156Z 00000KT 10SM SCT100 OVC200 M06/M17 A3033 RMK AO2A SLP275
                 T10641170 =
2019-01-17 19:56 METAR KPSM 180056Z 00000KT 10SM SCT100 OVC200 M07/M20 A3033 RMK AO2A SLP275
                 T10671200 =
2019-01-17 18:56 METAR KPSM 172356Z 00000KT 10SM BKN110 OVC200 M07/M20 A3034 RMK AO2A SLP278
                 T10701203 11036 21075 53004 =
2019-01-17 17:56 METAR KPSM 172256Z 00000KT 10SM OVC200 M07/M21 A3033 RMK AO2A SLP275 T10741213 =
2019-01-17 16:56 METAR KPSM 172156Z 00000KT 10SM BKN200 M07/M22 A3032 RMK AO2A SLP272 T10661221 =
2019-01-17 15:56 METAR KPSM 172056Z 24004KT 10SM BKN200 M05/M24 A3033 RMK AO2A SLP275 T10481238
                 55004 =
2019-01-17 14:56 METAR KPSM 171956Z 28004KT 10SM BKN250 M04/M24 A3033 RMK AO2A SLP275 T10371240 =
2019-01-17 13:56 METAR KPSM 171856Z 27006KT 10SM BKN250 M04/M26 A3032 RMK AO2A SLP271 T10411256 =
2019-01-17 12:56 METAR KPSM 171756Z 31005KT 10SM BKN250 M04/M25 A3034 RMK AO2A SLP278 T10441252
                 11044 21119 58015 =
2019-01-17 11:56 METAR KPSM 171656Z 29009KT 10SM SCT250 M05/M25 A3036 RMK AO2A SLP285 T10551255 =
2019-01-17 10:56 METAR KPSM 171556Z 28010KT 10SM SCT250 M06/M24 A3038 RMK AO2A SLP291 T10651243 =
2019-01-17 09:56 METAR KPSM 171456Z 29011KT 10SM FEW250 M08/M24 A3038 RMK AO2A SLP291 T10831244
                 52019 =
2019-01-17 08:56 METAR KPSM 171356Z 28011KT 10SM FEW200 M10/M23 A3036 RMK AO2A SLP285 T10991235 =
2019-01-17 07:56 METAR KPSM 171256Z 28009KT 10SM FEW200 M11/M24 A3033 RMK AO2A SLP275 T11131238 =
2019-01-17 06:56 METAR KPSM 171156Z 28010KT 10SM FEW200 M12/M23 A3033 RMK AO2A SLP275 T11181233
                 11060 21118 52018 =
2019-01-17 05:56 METAR KPSM 171056Z 29010KT 10SM CLR M11/M22 A3031 RMK AO2A SLP268 T11141218 =
2019-01-17 04:56 METAR KPSM 170956Z 29010KT 10SM CLR M11/M22 A3029 RMK AO2A SLP261 T11061219 =
2019-01-17 03:56 METAR KPSM 170856Z 29009KT 10SM CLR M10/M21 A3027 RMK AO2A SLP254 T11001214
                 52036 =

Support USWX by starting your Amazon purchase here.